sensor_id;sensor_type;location;lat;lon;timestamp;temperature;humidity
56172;DHT22;42052;41.634;-0.946;2022-07-29T00:00:08;25.40;54.80
56172;DHT22;42052;41.634;-0.946;2022-07-29T00:02:35;25.40;54.50
56172;DHT22;42052;41.634;-0.946;2022-07-29T00:05:01;25.50;54.10
56172;DHT22;42052;41.634;-0.946;2022-07-29T00:07:27;25.50;53.80
56172;DHT22;42052;41.634;-0.946;2022-07-29T00:09:53;25.60;53.50
56172;DHT22;42052;41.634;-0.946;2022-07-29T00:12:20;25.60;53.40
56172;DHT22;42052;41.634;-0.946;2022-07-29T00:14:46;25.60;53.10
56172;DHT22;42052;41.634;-0.946;2022-07-29T00:17:12;25.60;52.40
56172;DHT22;42052;41.634;-0.946;2022-07-29T00:19:38;25.70;51.90
56172;DHT22;42052;41.634;-0.946;2022-07-29T00:22:04;25.70;51.30
56172;DHT22;42052;41.634;-0.946;2022-07-29T00:24:29;25.80;51.10
56172;DHT22;42052;41.634;-0.946;2022-07-29T00:26:55;25.80;50.40
56172;DHT22;42052;41.634;-0.946;2022-07-29T00:29:21;25.80;49.70
56172;DHT22;42052;41.634;-0.946;2022-07-29T00:31:47;25.80;49.80
56172;DHT22;42052;41.634;-0.946;2022-07-29T00:34:13;25.80;49.40
56172;DHT22;42052;41.634;-0.946;2022-07-29T00:36:58;25.90;49.20
56172;DHT22;42052;41.634;-0.946;2022-07-29T00:39:23;25.90;47.90
56172;DHT22;42052;41.634;-0.946;2022-07-29T00:41:49;25.90;48.20
56172;DHT22;42052;41.634;-0.946;2022-07-29T00:44:15;25.90;48.10
56172;DHT22;42052;41.634;-0.946;2022-07-29T00:46:41;25.90;47.50
56172;DHT22;42052;41.634;-0.946;2022-07-29T00:49:07;26.00;47.80
56172;DHT22;42052;41.634;-0.946;2022-07-29T00:51:37;26.00;47.50
56172;DHT22;42052;41.634;-0.946;2022-07-29T00:54:04;26.00;47.50
56172;DHT22;42052;41.634;-0.946;2022-07-29T00:56:32;26.10;47.30
56172;DHT22;42052;41.634;-0.946;2022-07-29T00:58:58;26.10;47.00
56172;DHT22;42052;41.634;-0.946;2022-07-29T01:01:25;26.10;46.80
56172;DHT22;42052;41.634;-0.946;2022-07-29T01:03:51;26.10;46.60
56172;DHT22;42052;41.634;-0.946;2022-07-29T01:06:17;26.10;46.40
56172;DHT22;42052;41.634;-0.946;2022-07-29T01:08:45;26.10;47.20
56172;DHT22;42052;41.634;-0.946;2022-07-29T01:11:12;26.10;46.30
56172;DHT22;42052;41.634;-0.946;2022-07-29T01:13:38;26.10;45.90
56172;DHT22;42052;41.634;-0.946;2022-07-29T01:16:21;26.20;46.00
56172;DHT22;42052;41.634;-0.946;2022-07-29T01:18:49;26.20;46.00
56172;DHT22;42052;41.634;-0.946;2022-07-29T01:29:41;26.20;45.20
56172;DHT22;42052;41.634;-0.946;2022-07-29T01:32:11;26.20;45.40
56172;DHT22;42052;41.634;-0.946;2022-07-29T01:35:20;26.20;45.10
56172;DHT22;42052;41.634;-0.946;2022-07-29T01:38:01;26.20;45.20
56172;DHT22;42052;41.634;-0.946;2022-07-29T01:43:09;26.20;44.90
56172;DHT22;42052;41.634;-0.946;2022-07-29T01:50:44;26.30;44.70
56172;DHT22;42052;41.634;-0.946;2022-07-29T01:53:12;26.30;44.70
56172;DHT22;42052;41.634;-0.946;2022-07-29T01:55:44;26.30;44.30
56172;DHT22;42052;41.634;-0.946;2022-07-29T01:58:12;26.30;44.40
56172;DHT22;42052;41.634;-0.946;2022-07-29T02:00:39;26.30;44.20
56172;DHT22;42052;41.634;-0.946;2022-07-29T02:03:09;26.30;44.00
56172;DHT22;42052;41.634;-0.946;2022-07-29T02:05:38;26.30;43.90
56172;DHT22;42052;41.634;-0.946;2022-07-29T02:08:06;26.30;44.00
56172;DHT22;42052;41.634;-0.946;2022-07-29T02:10:33;26.30;44.10
56172;DHT22;42052;41.634;-0.946;2022-07-29T02:13:02;26.30;44.00
56172;DHT22;42052;41.634;-0.946;2022-07-29T02:15:30;26.30;44.00
56172;DHT22;42052;41.634;-0.946;2022-07-29T02:18:04;26.30;43.90
56172;DHT22;42052;41.634;-0.946;2022-07-29T02:20:32;26.30;43.90
56172;DHT22;42052;41.634;-0.946;2022-07-29T02:22:59;26.30;43.50
56172;DHT22;42052;41.634;-0.946;2022-07-29T02:25:26;26.30;43.50
56172;DHT22;42052;41.634;-0.946;2022-07-29T02:27:53;26.30;43.40
56172;DHT22;42052;41.634;-0.946;2022-07-29T02:30:22;26.40;43.30
56172;DHT22;42052;41.634;-0.946;2022-07-29T02:32:49;26.40;43.30
56172;DHT22;42052;41.634;-0.946;2022-07-29T02:35:16;26.30;43.10
56172;DHT22;42052;41.634;-0.946;2022-07-29T02:37:44;26.40;43.20
56172;DHT22;42052;41.634;-0.946;2022-07-29T02:40:32;26.40;43.20
56172;DHT22;42052;41.634;-0.946;2022-07-29T02:42:58;26.40;42.90
56172;DHT22;42052;41.634;-0.946;2022-07-29T02:45:25;26.40;43.10
56172;DHT22;42052;41.634;-0.946;2022-07-29T02:47:51;26.40;42.80
56172;DHT22;42052;41.634;-0.946;2022-07-29T02:50:32;26.50;42.80
56172;DHT22;42052;41.634;-0.946;2022-07-29T02:53:12;26.40;42.70
56172;DHT22;42052;41.634;-0.946;2022-07-29T02:55:56;26.40;42.70
56172;DHT22;42052;41.634;-0.946;2022-07-29T02:58:42;26.40;42.70
56172;DHT22;42052;41.634;-0.946;2022-07-29T03:01:21;26.40;42.70
56172;DHT22;42052;41.634;-0.946;2022-07-29T03:03:49;26.40;42.80
56172;DHT22;42052;41.634;-0.946;2022-07-29T03:06:16;26.40;42.60
56172;DHT22;42052;41.634;-0.946;2022-07-29T03:08:43;26.40;43.50
56172;DHT22;42052;41.634;-0.946;2022-07-29T03:11:10;26.40;42.30
56172;DHT22;42052;41.634;-0.946;2022-07-29T03:13:37;26.40;42.20
56172;DHT22;42052;41.634;-0.946;2022-07-29T03:16:04;26.40;42.40
56172;DHT22;42052;41.634;-0.946;2022-07-29T03:18:31;26.40;42.50
56172;DHT22;42052;41.634;-0.946;2022-07-29T03:20:57;26.40;42.40
56172;DHT22;42052;41.634;-0.946;2022-07-29T03:23:23;26.40;42.20
56172;DHT22;42052;41.634;-0.946;2022-07-29T03:25:49;26.40;42.30
56172;DHT22;42052;41.634;-0.946;2022-07-29T03:28:15;26.40;42.10
56172;DHT22;42052;41.634;-0.946;2022-07-29T03:30:41;26.40;42.10
56172;DHT22;42052;41.634;-0.946;2022-07-29T03:33:07;26.50;42.00
56172;DHT22;42052;41.634;-0.946;2022-07-29T03:35:33;26.40;42.10
56172;DHT22;42052;41.634;-0.946;2022-07-29T03:37:59;26.50;42.20
56172;DHT22;42052;41.634;-0.946;2022-07-29T03:40:53;26.40;41.80
56172;DHT22;42052;41.634;-0.946;2022-07-29T03:43:17;26.40;41.90
56172;DHT22;42052;41.634;-0.946;2022-07-29T03:45:47;26.40;41.90
56172;DHT22;42052;41.634;-0.946;2022-07-29T03:48:17;26.40;42.00
56172;DHT22;42052;41.634;-0.946;2022-07-29T03:50:45;26.40;41.80
56172;DHT22;42052;41.634;-0.946;2022-07-29T03:53:12;26.40;41.60
56172;DHT22;42052;41.634;-0.946;2022-07-29T03:55:45;26.50;41.80
56172;DHT22;42052;41.634;-0.946;2022-07-29T03:58:13;26.50;41.70
56172;DHT22;42052;41.634;-0.946;2022-07-29T04:00:40;26.50;41.60
56172;DHT22;42052;41.634;-0.946;2022-07-29T04:03:06;26.50;41.50
56172;DHT22;42052;41.634;-0.946;2022-07-29T04:05:32;26.50;41.30
56172;DHT22;42052;41.634;-0.946;2022-07-29T04:07:58;26.50;41.50
56172;DHT22;42052;41.634;-0.946;2022-07-29T04:10:24;26.50;41.50
56172;DHT22;42052;41.634;-0.946;2022-07-29T04:12:50;26.50;41.50
56172;DHT22;42052;41.634;-0.946;2022-07-29T04:15:15;26.50;41.70
56172;DHT22;42052;41.634;-0.946;2022-07-29T04:17:41;26.50;41.70
56172;DHT22;42052;41.634;-0.946;2022-07-29T04:20:08;26.50;41.60
56172;DHT22;42052;41.634;-0.946;2022-07-29T04:22:34;26.50;41.50
56172;DHT22;42052;41.634;-0.946;2022-07-29T04:24:59;26.50;41.60
56172;DHT22;42052;41.634;-0.946;2022-07-29T04:27:25;26.50;41.60
56172;DHT22;42052;41.634;-0.946;2022-07-29T04:29:51;26.50;41.60
56172;DHT22;42052;41.634;-0.946;2022-07-29T04:32:17;26.50;41.60
56172;DHT22;42052;41.634;-0.946;2022-07-29T04:34:43;26.50;41.60
56172;DHT22;42052;41.634;-0.946;2022-07-29T04:37:10;26.50;41.70
56172;DHT22;42052;41.634;-0.946;2022-07-29T04:39:36;26.50;41.70
56172;DHT22;42052;41.634;-0.946;2022-07-29T04:42:02;26.50;41.60
56172;DHT22;42052;41.634;-0.946;2022-07-29T04:44:28;26.50;41.50
56172;DHT22;42052;41.634;-0.946;2022-07-29T04:46:54;26.50;41.60
56172;DHT22;42052;41.634;-0.946;2022-07-29T04:49:20;26.50;41.40
56172;DHT22;42052;41.634;-0.946;2022-07-29T04:51:46;26.50;41.30
56172;DHT22;42052;41.634;-0.946;2022-07-29T04:54:12;26.50;41.20
56172;DHT22;42052;41.634;-0.946;2022-07-29T04:56:37;26.50;41.20
56172;DHT22;42052;41.634;-0.946;2022-07-29T04:59:03;26.50;41.20
56172;DHT22;42052;41.634;-0.946;2022-07-29T05:01:29;26.50;41.20
56172;DHT22;42052;41.634;-0.946;2022-07-29T05:03:55;26.50;41.00
56172;DHT22;42052;41.634;-0.946;2022-07-29T05:06:21;26.50;41.00
56172;DHT22;42052;41.634;-0.946;2022-07-29T05:08:46;26.50;41.00
56172;DHT22;42052;41.634;-0.946;2022-07-29T05:11:12;26.50;41.00
56172;DHT22;42052;41.634;-0.946;2022-07-29T05:13:39;26.50;41.00
56172;DHT22;42052;41.634;-0.946;2022-07-29T05:16:05;26.50;41.00
56172;DHT22;42052;41.634;-0.946;2022-07-29T05:18:30;26.50;41.10
56172;DHT22;42052;41.634;-0.946;2022-07-29T05:20:56;26.50;41.00
56172;DHT22;42052;41.634;-0.946;2022-07-29T05:23:22;26.50;40.90
56172;DHT22;42052;41.634;-0.946;2022-07-29T05:25:48;26.50;40.80
56172;DHT22;42052;41.634;-0.946;2022-07-29T05:28:15;26.50;40.70
56172;DHT22;42052;41.634;-0.946;2022-07-29T05:30:42;26.50;40.70
56172;DHT22;42052;41.634;-0.946;2022-07-29T05:33:10;26.50;40.80
56172;DHT22;42052;41.634;-0.946;2022-07-29T05:35:36;26.50;40.90
56172;DHT22;42052;41.634;-0.946;2022-07-29T05:38:03;26.50;40.90
56172;DHT22;42052;41.634;-0.946;2022-07-29T05:40:29;26.50;40.80
56172;DHT22;42052;41.634;-0.946;2022-07-29T05:42:55;26.50;40.70
56172;DHT22;42052;41.634;-0.946;2022-07-29T05:45:21;26.50;40.70
56172;DHT22;42052;41.634;-0.946;2022-07-29T05:47:47;26.50;40.80
56172;DHT22;42052;41.634;-0.946;2022-07-29T05:50:13;26.50;40.80
56172;DHT22;42052;41.634;-0.946;2022-07-29T05:52:39;26.50;41.00
56172;DHT22;42052;41.634;-0.946;2022-07-29T05:55:05;26.50;41.10
56172;DHT22;42052;41.634;-0.946;2022-07-29T05:57:31;26.60;41.30
56172;DHT22;42052;41.634;-0.946;2022-07-29T05:59:57;26.60;41.40
56172;DHT22;42052;41.634;-0.946;2022-07-29T06:02:23;26.60;41.40
56172;DHT22;42052;41.634;-0.946;2022-07-29T06:04:49;26.60;41.50
56172;DHT22;42052;41.634;-0.946;2022-07-29T06:07:15;26.60;41.60
56172;DHT22;42052;41.634;-0.946;2022-07-29T06:09:42;26.60;41.70
56172;DHT22;42052;41.634;-0.946;2022-07-29T06:12:08;26.60;41.80
56172;DHT22;42052;41.634;-0.946;2022-07-29T06:14:35;26.60;41.80
56172;DHT22;42052;41.634;-0.946;2022-07-29T06:17:01;26.60;41.90
56172;DHT22;42052;41.634;-0.946;2022-07-29T06:19:27;26.60;41.90
56172;DHT22;42052;41.634;-0.946;2022-07-29T06:21:53;26.60;41.90
56172;DHT22;42052;41.634;-0.946;2022-07-29T06:24:19;26.70;42.10
56172;DHT22;42052;41.634;-0.946;2022-07-29T06:26:44;26.70;42.10
56172;DHT22;42052;41.634;-0.946;2022-07-29T06:29:10;26.70;42.20
56172;DHT22;42052;41.634;-0.946;2022-07-29T06:31:37;26.70;42.20
56172;DHT22;42052;41.634;-0.946;2022-07-29T06:34:03;26.70;42.30
56172;DHT22;42052;41.634;-0.946;2022-07-29T06:36:29;26.70;42.30
56172;DHT22;42052;41.634;-0.946;2022-07-29T06:38:55;26.70;42.30
56172;DHT22;42052;41.634;-0.946;2022-07-29T06:41:20;26.70;42.40
56172;DHT22;42052;41.634;-0.946;2022-07-29T06:43:48;26.70;42.40
56172;DHT22;42052;41.634;-0.946;2022-07-29T06:46:15;26.70;42.50
56172;DHT22;42052;41.634;-0.946;2022-07-29T06:48:43;26.70;42.50
56172;DHT22;42052;41.634;-0.946;2022-07-29T06:51:10;26.70;42.50
56172;DHT22;42052;41.634;-0.946;2022-07-29T06:53:37;26.70;42.50
56172;DHT22;42052;41.634;-0.946;2022-07-29T06:56:05;26.70;42.60
56172;DHT22;42052;41.634;-0.946;2022-07-29T06:58:31;26.70;42.70
56172;DHT22;42052;41.634;-0.946;2022-07-29T07:01:02;26.70;42.70
56172;DHT22;42052;41.634;-0.946;2022-07-29T07:03:29;26.70;42.70
56172;DHT22;42052;41.634;-0.946;2022-07-29T07:05:55;26.70;42.70
56172;DHT22;42052;41.634;-0.946;2022-07-29T07:08:21;26.70;42.70
56172;DHT22;42052;41.634;-0.946;2022-07-29T07:10:48;26.70;42.80
56172;DHT22;42052;41.634;-0.946;2022-07-29T07:13:13;26.70;42.80
56172;DHT22;42052;41.634;-0.946;2022-07-29T07:15:40;26.70;42.80
56172;DHT22;42052;41.634;-0.946;2022-07-29T07:18:06;26.70;42.90
56172;DHT22;42052;41.634;-0.946;2022-07-29T07:20:36;26.70;42.90
56172;DHT22;42052;41.634;-0.946;2022-07-29T07:23:01;26.70;43.00
56172;DHT22;42052;41.634;-0.946;2022-07-29T07:25:27;26.70;43.00
56172;DHT22;42052;41.634;-0.946;2022-07-29T07:27:53;26.80;43.10
56172;DHT22;42052;41.634;-0.946;2022-07-29T07:30:20;26.70;43.00
56172;DHT22;42052;41.634;-0.946;2022-07-29T07:32:45;26.70;43.00
56172;DHT22;42052;41.634;-0.946;2022-07-29T07:35:11;26.70;43.10
56172;DHT22;42052;41.634;-0.946;2022-07-29T07:37:38;26.70;43.10
56172;DHT22;42052;41.634;-0.946;2022-07-29T07:40:06;26.80;43.20
56172;DHT22;42052;41.634;-0.946;2022-07-29T07:42:32;26.70;43.10
56172;DHT22;42052;41.634;-0.946;2022-07-29T07:44:58;26.70;43.10
56172;DHT22;42052;41.634;-0.946;2022-07-29T07:47:24;26.70;43.10
56172;DHT22;42052;41.634;-0.946;2022-07-29T07:49:51;26.70;43.10
56172;DHT22;42052;41.634;-0.946;2022-07-29T07:52:19;26.70;43.10
56172;DHT22;42052;41.634;-0.946;2022-07-29T07:54:45;26.80;43.20
56172;DHT22;42052;41.634;-0.946;2022-07-29T07:57:15;26.80;43.30
56172;DHT22;42052;41.634;-0.946;2022-07-29T07:59:41;26.80;43.20
56172;DHT22;42052;41.634;-0.946;2022-07-29T08:02:08;26.80;43.30
56172;DHT22;42052;41.634;-0.946;2022-07-29T08:04:34;26.80;43.30
56172;DHT22;42052;41.634;-0.946;2022-07-29T08:07:01;26.70;44.00
56172;DHT22;42052;41.634;-0.946;2022-07-29T08:09:28;26.80;43.30
56172;DHT22;42052;41.634;-0.946;2022-07-29T08:11:55;26.80;43.30
56172;DHT22;42052;41.634;-0.946;2022-07-29T08:14:21;26.80;43.40
56172;DHT22;42052;41.634;-0.946;2022-07-29T08:16:47;26.70;43.30
56172;DHT22;42052;41.634;-0.946;2022-07-29T08:19:13;26.80;43.40
56172;DHT22;42052;41.634;-0.946;2022-07-29T08:21:39;26.80;43.40
56172;DHT22;42052;41.634;-0.946;2022-07-29T08:24:05;26.80;43.40
56172;DHT22;42052;41.634;-0.946;2022-07-29T08:26:49;26.80;43.40
56172;DHT22;42052;41.634;-0.946;2022-07-29T08:29:15;26.80;43.40
56172;DHT22;42052;41.634;-0.946;2022-07-29T08:31:41;26.80;43.50
56172;DHT22;42052;41.634;-0.946;2022-07-29T08:34:07;26.80;43.50
56172;DHT22;42052;41.634;-0.946;2022-07-29T08:36:34;26.80;43.50
56172;DHT22;42052;41.634;-0.946;2022-07-29T08:39:00;26.80;43.50
56172;DHT22;42052;41.634;-0.946;2022-07-29T08:41:27;26.80;43.40
56172;DHT22;42052;41.634;-0.946;2022-07-29T08:43:53;26.80;43.40
56172;DHT22;42052;41.634;-0.946;2022-07-29T08:46:20;26.80;43.50
56172;DHT22;42052;41.634;-0.946;2022-07-29T08:48:47;26.80;43.50
56172;DHT22;42052;41.634;-0.946;2022-07-29T08:51:14;26.80;43.50
56172;DHT22;42052;41.634;-0.946;2022-07-29T08:53:43;26.80;43.40
56172;DHT22;42052;41.634;-0.946;2022-07-29T08:56:12;26.80;43.50
56172;DHT22;42052;41.634;-0.946;2022-07-29T08:58:39;26.80;43.50
56172;DHT22;42052;41.634;-0.946;2022-07-29T09:01:06;26.80;43.50
56172;DHT22;42052;41.634;-0.946;2022-07-29T09:03:34;26.80;43.50
56172;DHT22;42052;41.634;-0.946;2022-07-29T09:06:04;26.80;43.50
56172;DHT22;42052;41.634;-0.946;2022-07-29T09:08:33;26.80;43.60
56172;DHT22;42052;41.634;-0.946;2022-07-29T09:11:01;26.80;43.50
56172;DHT22;42052;41.634;-0.946;2022-07-29T09:13:28;26.80;43.50
56172;DHT22;42052;41.634;-0.946;2022-07-29T09:15:54;26.80;43.50
56172;DHT22;42052;41.634;-0.946;2022-07-29T09:18:41;26.80;43.60
56172;DHT22;42052;41.634;-0.946;2022-07-29T09:21:08;26.80;43.60
56172;DHT22;42052;41.634;-0.946;2022-07-29T09:24:13;26.80;43.60
56172;DHT22;42052;41.634;-0.946;2022-07-29T09:26:41;26.80;43.60
56172;DHT22;42052;41.634;-0.946;2022-07-29T09:29:15;26.90;43.70
56172;DHT22;42052;41.634;-0.946;2022-07-29T09:31:47;26.80;43.60
56172;DHT22;42052;41.634;-0.946;2022-07-29T09:34:27;26.80;43.60
56172;DHT22;42052;41.634;-0.946;2022-07-29T09:36:57;26.90;43.70
56172;DHT22;42052;41.634;-0.946;2022-07-29T09:39:49;26.90;43.70
56172;DHT22;42052;41.634;-0.946;2022-07-29T09:42:30;26.90;43.70
56172;DHT22;42052;41.634;-0.946;2022-07-29T09:44:58;26.90;43.70
56172;DHT22;42052;41.634;-0.946;2022-07-29T09:47:44;26.90;43.70
56172;DHT22;42052;41.634;-0.946;2022-07-29T09:50:11;26.90;43.80
56172;DHT22;42052;41.634;-0.946;2022-07-29T09:52:51;26.90;43.70
56172;DHT22;42052;41.634;-0.946;2022-07-29T09:55:18;26.90;43.80
56172;DHT22;42052;41.634;-0.946;2022-07-29T09:57:45;26.90;43.80
56172;DHT22;42052;41.634;-0.946;2022-07-29T10:00:17;26.90;43.80
56172;DHT22;42052;41.634;-0.946;2022-07-29T10:02:45;26.90;43.80
56172;DHT22;42052;41.634;-0.946;2022-07-29T10:05:25;26.90;43.80
56172;DHT22;42052;41.634;-0.946;2022-07-29T10:07:53;26.90;43.80
56172;DHT22;42052;41.634;-0.946;2022-07-29T10:10:29;26.90;43.90
56172;DHT22;42052;41.634;-0.946;2022-07-29T10:13:00;26.90;43.90
56172;DHT22;42052;41.634;-0.946;2022-07-29T10:15:29;26.90;43.90
56172;DHT22;42052;41.634;-0.946;2022-07-29T10:17:56;26.90;43.90
56172;DHT22;42052;41.634;-0.946;2022-07-29T10:20:22;26.90;43.90
56172;DHT22;42052;41.634;-0.946;2022-07-29T10:22:50;26.90;43.90
56172;DHT22;42052;41.634;-0.946;2022-07-29T10:25:17;26.90;43.90
56172;DHT22;42052;41.634;-0.946;2022-07-29T10:27:44;26.90;43.90
56172;DHT22;42052;41.634;-0.946;2022-07-29T10:30:13;26.90;43.90
56172;DHT22;42052;41.634;-0.946;2022-07-29T10:33:01;26.90;43.90
56172;DHT22;42052;41.634;-0.946;2022-07-29T10:41:17;26.90;44.00
56172;DHT22;42052;41.634;-0.946;2022-07-29T10:44:18;26.90;44.00
56172;DHT22;42052;41.634;-0.946;2022-07-29T10:46:46;26.90;44.00
56172;DHT22;42052;41.634;-0.946;2022-07-29T10:49:18;26.90;44.00
56172;DHT22;42052;41.634;-0.946;2022-07-29T10:52:06;26.90;44.00
56172;DHT22;42052;41.634;-0.946;2022-07-29T10:54:42;26.90;44.00
56172;DHT22;42052;41.634;-0.946;2022-07-29T10:59:39;26.90;44.00
56172;DHT22;42052;41.634;-0.946;2022-07-29T11:05:15;26.90;44.00
56172;DHT22;42052;41.634;-0.946;2022-07-29T11:10:38;26.90;44.10
56172;DHT22;42052;41.634;-0.946;2022-07-29T11:13:04;26.90;44.10
56172;DHT22;42052;41.634;-0.946;2022-07-29T11:15:53;27.00;44.10
56172;DHT22;42052;41.634;-0.946;2022-07-29T11:18:19;26.90;44.10
56172;DHT22;42052;41.634;-0.946;2022-07-29T11:20:50;27.00;44.20
56172;DHT22;42052;41.634;-0.946;2022-07-29T11:23:25;27.00;44.20
56172;DHT22;42052;41.634;-0.946;2022-07-29T11:31:42;26.90;44.80
56172;DHT22;42052;41.634;-0.946;2022-07-29T11:39:32;27.00;44.20
56172;DHT22;42052;41.634;-0.946;2022-07-29T11:47:56;27.00;44.10
56172;DHT22;42052;41.634;-0.946;2022-07-29T11:50:36;27.00;44.20
56172;DHT22;42052;41.634;-0.946;2022-07-29T11:53:10;27.00;44.20
56172;DHT22;42052;41.634;-0.946;2022-07-29T11:55:38;27.00;44.20
56172;DHT22;42052;41.634;-0.946;2022-07-29T11:58:05;27.00;44.10
56172;DHT22;42052;41.634;-0.946;2022-07-29T12:00:39;27.10;44.30
56172;DHT22;42052;41.634;-0.946;2022-07-29T12:03:09;27.10;44.20
56172;DHT22;42052;41.634;-0.946;2022-07-29T12:05:45;27.00;44.20
56172;DHT22;42052;41.634;-0.946;2022-07-29T12:08:14;27.10;44.20
56172;DHT22;42052;41.634;-0.946;2022-07-29T12:10:41;27.10;44.20
56172;DHT22;42052;41.634;-0.946;2022-07-29T12:13:07;27.10;44.20
56172;DHT22;42052;41.634;-0.946;2022-07-29T12:15:34;27.10;44.20
56172;DHT22;42052;41.634;-0.946;2022-07-29T12:18:19;27.10;44.20
56172;DHT22;42052;41.634;-0.946;2022-07-29T12:20:47;27.10;44.20
56172;DHT22;42052;41.634;-0.946;2022-07-29T12:23:14;27.10;44.20
56172;DHT22;42052;41.634;-0.946;2022-07-29T12:25:43;27.10;44.20
56172;DHT22;42052;41.634;-0.946;2022-07-29T12:28:13;27.10;44.20
56172;DHT22;42052;41.634;-0.946;2022-07-29T12:30:45;27.20;44.30
56172;DHT22;42052;41.634;-0.946;2022-07-29T12:35:56;27.10;44.20
56172;DHT22;42052;41.634;-0.946;2022-07-29T12:38:22;27.20;44.20
56172;DHT22;42052;41.634;-0.946;2022-07-29T12:40:49;27.20;44.30
56172;DHT22;42052;41.634;-0.946;2022-07-29T12:43:21;27.20;44.20
56172;DHT22;42052;41.634;-0.946;2022-07-29T12:45:50;27.20;44.20
56172;DHT22;42052;41.634;-0.946;2022-07-29T12:48:18;27.20;44.20
56172;DHT22;42052;41.634;-0.946;2022-07-29T12:50:59;27.20;44.20
56172;DHT22;42052;41.634;-0.946;2022-07-29T12:53:26;27.20;44.20
56172;DHT22;42052;41.634;-0.946;2022-07-29T12:55:54;27.20;44.30
56172;DHT22;42052;41.634;-0.946;2022-07-29T13:01:16;27.30;44.30
56172;DHT22;42052;41.634;-0.946;2022-07-29T13:03:47;27.20;44.40
56172;DHT22;42052;41.634;-0.946;2022-07-29T13:09:05;27.30;44.50
56172;DHT22;42052;41.634;-0.946;2022-07-29T13:11:35;27.20;44.40
56172;DHT22;42052;41.634;-0.946;2022-07-29T13:14:01;27.30;44.50
56172;DHT22;42052;41.634;-0.946;2022-07-29T13:16:27;27.20;44.40
56172;DHT22;42052;41.634;-0.946;2022-07-29T13:19:11;27.20;44.50
56172;DHT22;42052;41.634;-0.946;2022-07-29T13:21:38;27.30;44.50
56172;DHT22;42052;41.634;-0.946;2022-07-29T13:24:08;27.20;44.50
56172;DHT22;42052;41.634;-0.946;2022-07-29T13:26:34;27.30;44.50
56172;DHT22;42052;41.634;-0.946;2022-07-29T13:29:00;27.30;44.50
56172;DHT22;42052;41.634;-0.946;2022-07-29T13:31:26;27.30;44.50
56172;DHT22;42052;41.634;-0.946;2022-07-29T13:33:52;27.30;44.50
56172;DHT22;42052;41.634;-0.946;2022-07-29T13:36:18;27.30;44.50
56172;DHT22;42052;41.634;-0.946;2022-07-29T13:38:44;27.20;44.50
56172;DHT22;42052;41.634;-0.946;2022-07-29T13:41:10;27.30;44.50
56172;DHT22;42052;41.634;-0.946;2022-07-29T13:43:35;27.30;44.60
56172;DHT22;42052;41.634;-0.946;2022-07-29T13:46:01;27.30;44.60
56172;DHT22;42052;41.634;-0.946;2022-07-29T13:48:27;27.30;44.90
56172;DHT22;42052;41.634;-0.946;2022-07-29T13:50:53;27.30;44.60
56172;DHT22;42052;41.634;-0.946;2022-07-29T13:53:19;27.30;44.60
56172;DHT22;42052;41.634;-0.946;2022-07-29T13:55:44;27.30;44.60
56172;DHT22;42052;41.634;-0.946;2022-07-29T13:58:10;27.30;44.60
56172;DHT22;42052;41.634;-0.946;2022-07-29T14:00:36;27.30;44.60
56172;DHT22;42052;41.634;-0.946;2022-07-29T14:03:02;27.30;44.60
56172;DHT22;42052;41.634;-0.946;2022-07-29T14:05:28;27.30;44.60
56172;DHT22;42052;41.634;-0.946;2022-07-29T14:07:54;27.30;44.70
56172;DHT22;42052;41.634;-0.946;2022-07-29T14:10:20;27.30;44.60
56172;DHT22;42052;41.634;-0.946;2022-07-29T14:12:45;27.30;44.70
56172;DHT22;42052;41.634;-0.946;2022-07-29T14:15:11;27.30;44.70
56172;DHT22;42052;41.634;-0.946;2022-07-29T14:17:37;27.40;44.80
56172;DHT22;42052;41.634;-0.946;2022-07-29T14:20:03;27.30;44.70
56172;DHT22;42052;41.634;-0.946;2022-07-29T14:22:29;27.30;44.70
56172;DHT22;42052;41.634;-0.946;2022-07-29T14:24:55;27.40;44.80
56172;DHT22;42052;41.634;-0.946;2022-07-29T14:27:21;27.40;44.80
56172;DHT22;42052;41.634;-0.946;2022-07-29T14:29:47;27.40;44.80
56172;DHT22;42052;41.634;-0.946;2022-07-29T14:32:12;27.40;44.80
56172;DHT22;42052;41.634;-0.946;2022-07-29T14:34:40;27.40;44.90
56172;DHT22;42052;41.634;-0.946;2022-07-29T14:37:06;27.40;44.80
56172;DHT22;42052;41.634;-0.946;2022-07-29T14:39:33;27.40;44.80
56172;DHT22;42052;41.634;-0.946;2022-07-29T14:42:00;27.40;44.80
56172;DHT22;42052;41.634;-0.946;2022-07-29T14:44:26;27.40;44.90
56172;DHT22;42052;41.634;-0.946;2022-07-29T14:46:57;27.30;44.80
56172;DHT22;42052;41.634;-0.946;2022-07-29T14:49:24;27.40;44.90
56172;DHT22;42052;41.634;-0.946;2022-07-29T14:51:50;27.40;44.90
56172;DHT22;42052;41.634;-0.946;2022-07-29T14:54:17;27.40;45.00
56172;DHT22;42052;41.634;-0.946;2022-07-29T14:56:42;27.40;44.90
56172;DHT22;42052;41.634;-0.946;2022-07-29T14:59:08;27.40;44.90
56172;DHT22;42052;41.634;-0.946;2022-07-29T15:01:34;27.40;45.00
56172;DHT22;42052;41.634;-0.946;2022-07-29T15:04:00;27.40;45.00
56172;DHT22;42052;41.634;-0.946;2022-07-29T15:06:26;27.40;45.00
56172;DHT22;42052;41.634;-0.946;2022-07-29T15:08:52;27.40;45.00
56172;DHT22;42052;41.634;-0.946;2022-07-29T15:11:18;27.40;45.10
56172;DHT22;42052;41.634;-0.946;2022-07-29T15:13:44;27.40;45.10
56172;DHT22;42052;41.634;-0.946;2022-07-29T15:16:10;27.40;45.20
56172;DHT22;42052;41.634;-0.946;2022-07-29T15:18:36;27.40;45.20
56172;DHT22;42052;41.634;-0.946;2022-07-29T15:21:04;27.40;45.30
56172;DHT22;42052;41.634;-0.946;2022-07-29T15:23:32;27.40;46.00
56172;DHT22;42052;41.634;-0.946;2022-07-29T15:25:58;27.50;45.30
56172;DHT22;42052;41.634;-0.946;2022-07-29T15:28:24;27.40;45.30
56172;DHT22;42052;41.634;-0.946;2022-07-29T15:30:49;27.50;45.40
56172;DHT22;42052;41.634;-0.946;2022-07-29T15:33:15;27.50;45.50
56172;DHT22;42052;41.634;-0.946;2022-07-29T15:35:41;27.50;45.50
56172;DHT22;42052;41.634;-0.946;2022-07-29T15:38:07;27.50;45.40
56172;DHT22;42052;41.634;-0.946;2022-07-29T15:40:33;27.50;45.50
56172;DHT22;42052;41.634;-0.946;2022-07-29T15:43:04;27.50;46.30
56172;DHT22;42052;41.634;-0.946;2022-07-29T15:45:35;27.50;45.60
56172;DHT22;42052;41.634;-0.946;2022-07-29T15:48:02;27.50;45.70
56172;DHT22;42052;41.634;-0.946;2022-07-29T15:50:27;27.50;45.60
56172;DHT22;42052;41.634;-0.946;2022-07-29T15:52:53;27.50;46.40
56172;DHT22;42052;41.634;-0.946;2022-07-29T15:55:19;27.50;47.20
56172;DHT22;42052;41.634;-0.946;2022-07-29T15:57:45;27.50;47.00
56172;DHT22;42052;41.634;-0.946;2022-07-29T16:00:11;27.50;46.80
56172;DHT22;42052;41.634;-0.946;2022-07-29T16:02:38;27.50;45.20
56172;DHT22;42052;41.634;-0.946;2022-07-29T16:05:04;27.40;44.10
56172;DHT22;42052;41.634;-0.946;2022-07-29T16:07:31;27.30;43.70
56172;DHT22;42052;41.634;-0.946;2022-07-29T16:09:57;27.20;43.50
56172;DHT22;42052;41.634;-0.946;2022-07-29T16:12:23;27.00;43.20
56172;DHT22;42052;41.634;-0.946;2022-07-29T16:14:49;26.90;43.00
56172;DHT22;42052;41.634;-0.946;2022-07-29T16:17:16;26.80;42.90